createdAt,value
2023-04-12T00:00:48.466Z,5.55
2023-04-12T00:03:20.388Z,4.20
2023-04-12T00:05:55.054Z,5.43
2023-04-12T00:08:26.744Z,4.75
2023-04-12T00:10:54.099Z,4.70
2023-04-12T00:13:21.302Z,4.00
2023-04-12T00:15:48.532Z,4.45
2023-04-12T00:18:15.872Z,3.30
2023-04-12T00:20:43.790Z,3.88
2023-04-12T00:23:12.967Z,3.97
2023-04-12T00:25:40.244Z,3.55
2023-04-12T00:28:07.491Z,3.25
2023-04-12T00:30:34.736Z,5.85
2023-04-12T00:33:02.224Z,3.70
2023-04-12T00:35:29.542Z,3.42
2023-04-12T00:37:56.796Z,4.18
2023-04-12T00:40:24.127Z,4.88
2023-04-12T00:42:51.358Z,3.70
2023-04-12T00:45:18.736Z,3.40
2023-04-12T00:47:46.158Z,4.78
2023-04-12T00:50:14.217Z,4.32
2023-04-12T00:52:41.969Z,4.97
2023-04-12T00:55:10.351Z,3.75
2023-04-12T00:57:39.619Z,5.93
2023-04-12T01:00:10.445Z,3.88
2023-04-12T01:02:39.491Z,3.22
2023-04-12T01:05:08.555Z,5.88
2023-04-12T01:07:51.649Z,4.85
2023-04-12T01:10:31.672Z,6.05
2023-04-12T01:13:37.766Z,4.35
2023-04-12T01:16:37.884Z,5.25
2023-04-12T01:19:19.799Z,3.65
2023-04-12T01:22:19.009Z,8.10
2023-04-12T01:25:24.226Z,5.88
2023-04-12T01:27:57.480Z,5.93
2023-04-12T01:30:28.186Z,8.90
2023-04-12T01:32:59.246Z,6.13
2023-04-12T01:35:33.918Z,5.28
2023-04-12T01:38:03.331Z,4.68
2023-04-12T01:40:31.684Z,4.80
2023-04-12T01:43:13.247Z,4.53
2023-04-12T01:45:40.822Z,4.43
2023-04-12T01:48:11.185Z,5.28
2023-04-12T01:50:54.959Z,4.15
2023-04-12T01:53:59.442Z,5.85
2023-04-12T01:56:31.485Z,6.30
2023-04-12T01:59:00.921Z,5.18
2023-04-12T02:01:29.458Z,5.22
2023-04-12T02:04:00.707Z,4.85
2023-04-12T02:06:28.479Z,7.28
2023-04-12T02:09:04.731Z,6.80
2023-04-12T02:11:33.648Z,5.45
2023-04-12T02:14:00.866Z,4.00
2023-04-12T02:16:29.485Z,5.53
2023-04-12T02:18:57.484Z,4.88
2023-04-12T02:21:26.452Z,5.10
2023-04-12T02:23:54.819Z,3.25
2023-04-12T02:26:23.619Z,3.28
2023-04-12T02:28:52.706Z,4.60
2023-04-12T02:31:21.059Z,5.18
2023-04-12T02:33:49.867Z,2.35
2023-04-12T02:36:18.672Z,2.33
2023-04-12T02:38:46.185Z,2.47
2023-04-12T02:41:21.498Z,4.38
2023-04-12T02:43:49.614Z,2.58
2023-04-12T02:46:24.942Z,3.67
2023-04-12T02:48:57.267Z,5.18
2023-04-12T02:51:32.847Z,3.53
2023-04-12T02:54:02.411Z,2.42
2023-04-12T02:56:39.433Z,2.53
2023-04-12T02:59:25.452Z,2.33
2023-04-12T03:02:07.809Z,3.53
2023-04-12T03:04:39.901Z,3.22
2023-04-12T03:07:12.440Z,4.63
2023-04-12T03:09:50.645Z,4.10
2023-04-12T03:12:20.406Z,3.58
2023-04-12T03:14:57.461Z,6.07
2023-04-12T03:17:26.874Z,4.05
2023-04-12T03:19:58.187Z,8.07
2023-04-12T03:22:27.893Z,2.92
2023-04-12T03:24:59.105Z,2.58
2023-04-12T03:27:26.525Z,3.67
2023-04-12T03:29:54.212Z,2.92
2023-04-12T03:32:24.696Z,3.85
2023-04-12T03:34:51.962Z,3.47
2023-04-12T03:37:24.968Z,2.20
2023-04-12T03:39:54.292Z,6.32
2023-04-12T03:42:32.957Z,1.40
2023-04-12T03:45:12.350Z,2.58
2023-04-12T03:47:43.253Z,6.15
2023-04-12T03:50:12.569Z,2.17
2023-04-12T03:52:45.141Z,3.00
2023-04-12T03:55:13.659Z,2.35
2023-04-12T03:57:42.079Z,7.47
2023-04-12T04:00:10.612Z,2.05
2023-04-12T04:03:03.408Z,4.10
2023-04-12T04:05:34.084Z,1.77
2023-04-12T04:08:02.543Z,2.30
2023-04-12T04:10:36.196Z,2.90
2023-04-12T04:13:03.711Z,2.25
2023-04-12T04:15:31.446Z,2.80
2023-04-12T04:17:58.978Z,3.33
2023-04-12T04:20:27.830Z,2.40
2023-04-12T04:22:55.250Z,2.50
2023-04-12T04:25:29.996Z,4.65
2023-04-12T04:28:02.921Z,3.58
2023-04-12T04:30:34.294Z,3.33
2023-04-12T04:33:03.430Z,1.95
2023-04-12T04:35:31.667Z,3.03
2023-04-12T04:38:25.612Z,3.92
2023-04-12T04:40:56.659Z,2.30
2023-04-12T04:43:35.411Z,6.70
2023-04-12T04:46:03.386Z,3.47
2023-04-12T04:48:30.771Z,9.10
2023-04-12T04:51:00.167Z,2.33
2023-04-12T04:53:27.461Z,4.50
2023-04-12T04:56:01.225Z,6.53
2023-04-12T04:58:33.666Z,4.72
2023-04-12T05:01:01.333Z,2.95
2023-04-12T05:03:31.107Z,2.55
2023-04-12T05:06:01.553Z,4.90
2023-04-12T05:08:30.060Z,6.95
2023-04-12T05:10:57.700Z,6.00
2023-04-12T05:13:29.344Z,8.00
2023-04-12T05:15:56.969Z,5.18
2023-04-12T05:18:24.265Z,3.80
2023-04-12T05:20:52.054Z,4.57
2023-04-12T05:23:20.538Z,4.45
2023-04-12T05:25:50.166Z,4.53
2023-04-12T05:28:19.240Z,5.25
2023-04-12T05:30:47.029Z,3.55
2023-04-12T05:33:19.832Z,2.20
2023-04-12T05:35:49.245Z,4.75
2023-04-12T05:38:16.682Z,5.63
2023-04-12T05:40:50.064Z,5.43
2023-04-12T05:43:22.192Z,3.70
2023-04-12T05:45:51.475Z,4.05
2023-04-12T05:48:22.000Z,4.53
2023-04-12T05:50:53.323Z,3.83
2023-04-12T05:53:23.027Z,6.57
2023-04-12T05:55:51.779Z,7.95
2023-04-12T05:58:20.011Z,3.75
2023-04-12T06:00:50.339Z,3.05
2023-04-12T06:03:17.737Z,5.07
2023-04-12T06:05:47.488Z,3.17
2023-04-12T06:08:15.278Z,3.28
2023-04-12T06:10:43.800Z,5.45
2023-04-12T06:13:11.080Z,4.47
2023-04-12T06:15:42.271Z,4.60
2023-04-12T06:18:10.109Z,4.28
2023-04-12T06:20:40.578Z,4.55
2023-04-12T06:23:07.952Z,5.22
2023-04-12T06:25:35.676Z,3.80
2023-04-12T06:28:04.251Z,6.18
2023-04-12T06:30:33.567Z,3.35
2023-04-12T06:33:01.184Z,2.75
2023-04-12T06:35:28.805Z,5.03
2023-04-12T06:37:56.329Z,5.93
2023-04-12T06:40:23.594Z,2.35
2023-04-12T06:42:50.844Z,3.03
2023-04-12T06:45:23.002Z,5.07
2023-04-12T06:47:50.522Z,4.63
2023-04-12T06:50:18.566Z,5.35
2023-04-12T06:52:46.893Z,5.38
2023-04-12T06:55:14.300Z,3.08
2023-04-12T06:57:47.648Z,4.22
2023-04-12T07:00:15.350Z,2.97
2023-04-12T07:02:42.633Z,6.68
2023-04-12T07:05:10.078Z,3.75
2023-04-12T07:07:37.223Z,2.88
2023-04-12T07:10:04.813Z,3.35
2023-04-12T07:12:32.459Z,6.22
2023-04-12T07:14:59.878Z,3.63
2023-04-12T07:17:27.234Z,4.20
2023-04-12T07:19:55.229Z,4.65
2023-04-12T07:22:22.868Z,2.10
2023-04-12T07:24:51.349Z,6.07
2023-04-12T07:27:18.818Z,2.78
2023-04-12T07:29:46.020Z,3.10
2023-04-12T07:32:13.226Z,7.90
2023-04-12T07:34:40.507Z,4.38
2023-04-12T07:37:07.848Z,3.10
2023-04-12T07:39:35.207Z,4.10
2023-04-12T07:42:02.508Z,4.70
2023-04-12T07:44:31.564Z,3.75
2023-04-12T07:46:58.738Z,5.28
2023-04-12T07:49:25.950Z,3.58
2023-04-12T07:51:53.253Z,3.00
2023-04-12T07:54:21.696Z,4.13
2023-04-12T07:57:00.717Z,2.78
2023-04-12T07:59:28.139Z,6.05
2023-04-12T08:01:55.453Z,7.80
2023-04-12T08:04:22.989Z,4.35
2023-04-12T08:06:50.584Z,5.93
2023-04-12T08:09:17.869Z,5.47
2023-04-12T08:11:45.524Z,3.85
2023-04-12T08:14:13.243Z,5.18
2023-04-12T08:16:40.424Z,5.88
2023-04-12T08:19:08.176Z,5.13
2023-04-12T08:21:35.735Z,5.75
2023-04-12T08:24:03.017Z,4.65
2023-04-12T08:26:30.390Z,5.32
2023-04-12T08:28:58.496Z,2.88
2023-04-12T08:31:25.900Z,4.97
2023-04-12T08:33:53.089Z,4.28
2023-04-12T08:36:20.956Z,4.95
2023-04-12T08:38:52.556Z,3.85
2023-04-12T08:41:20.440Z,3.40
2023-04-12T08:43:48.843Z,4.57
2023-04-12T08:46:17.040Z,3.13
2023-04-12T08:48:49.710Z,5.80
2023-04-12T08:51:20.427Z,4.32
2023-04-12T08:53:48.179Z,4.10
2023-04-12T08:56:16.804Z,5.22
2023-04-12T08:58:49.301Z,6.90
2023-04-12T09:01:17.769Z,5.32
2023-04-12T09:03:46.819Z,5.25
2023-04-12T09:06:14.446Z,7.03
2023-04-12T09:08:56.034Z,8.40
2023-04-12T09:11:25.072Z,6.68
2023-04-12T09:13:52.686Z,3.58
2023-04-12T09:16:35.635Z,2.45
2023-04-12T09:19:03.726Z,3.97
2023-04-12T09:21:32.461Z,7.25
2023-04-12T09:24:17.839Z,3.58
2023-04-12T09:26:45.049Z,3.03
2023-04-12T09:29:27.990Z,5.05
2023-04-12T09:32:09.252Z,3.38
2023-04-12T09:34:37.354Z,5.70
2023-04-12T09:37:16.233Z,8.30
2023-04-12T09:39:44.191Z,2.58
2023-04-12T09:42:29.972Z,7.90
2023-04-12T09:45:01.904Z,4.40
2023-04-12T09:47:40.196Z,2.10
2023-04-12T09:50:09.963Z,6.25
2023-04-12T09:52:39.036Z,5.18
2023-04-12T09:55:13.373Z,3.30
2023-04-12T09:57:45.001Z,5.60
2023-04-12T10:00:22.452Z,5.95
2023-04-12T10:02:52.245Z,3.50
2023-04-12T10:05:22.363Z,5.47
2023-04-12T10:07:50.228Z,2.80
2023-04-12T10:10:19.055Z,4.00
2023-04-12T10:12:47.788Z,6.50
2023-04-12T10:15:18.842Z,4.93
2023-04-12T10:17:49.182Z,2.88
2023-04-12T10:20:18.402Z,7.45
2023-04-12T10:22:50.974Z,6.95
2023-04-12T10:25:26.986Z,3.30
2023-04-12T10:27:54.328Z,4.03
2023-04-12T10:30:28.789Z,3.65
2023-04-12T10:33:05.292Z,4.40
2023-04-12T10:36:13.063Z,4.72
2023-04-12T10:39:09.868Z,4.95
2023-04-12T10:41:37.707Z,2.25
2023-04-12T10:44:24.721Z,5.18
2023-04-12T10:46:52.154Z,8.60
2023-04-12T10:49:19.558Z,6.28
2023-04-12T10:52:14.148Z,4.00
2023-04-12T10:54:41.806Z,2.65
2023-04-12T10:57:47.875Z,4.50
2023-04-12T11:00:15.830Z,5.28
2023-04-12T11:03:12.355Z,4.85
2023-04-12T11:06:06.379Z,3.75
2023-04-12T11:09:29.605Z,8.65
2023-04-12T11:11:58.937Z,5.88
2023-04-12T11:14:36.165Z,4.80
2023-04-12T11:17:09.045Z,3.15
2023-04-12T11:19:44.405Z,4.53
2023-04-12T11:22:14.328Z,11.32
2023-04-12T11:24:45.305Z,4.10
2023-04-12T11:27:12.821Z,4.22
2023-04-12T11:29:40.623Z,3.30
2023-04-12T11:32:14.749Z,4.68
2023-04-12T11:34:44.195Z,2.55
2023-04-12T11:37:11.574Z,6.05
2023-04-12T11:39:41.354Z,6.18
2023-04-12T11:42:15.922Z,5.75
2023-04-12T11:47:18.991Z,2.85
2023-04-12T11:49:54.963Z,2.10
2023-04-12T11:52:28.060Z,4.07
2023-04-12T11:54:58.952Z,5.00
2023-04-12T11:57:26.444Z,2.55
2023-04-12T11:59:53.836Z,1.73
2023-04-12T12:02:24.007Z,4.57
2023-04-12T12:04:53.293Z,3.78
2023-04-12T12:07:22.147Z,4.68
2023-04-12T12:09:50.574Z,4.18
2023-04-12T12:12:18.876Z,2.45
2023-04-12T12:14:49.094Z,3.38
2023-04-12T12:17:17.417Z,9.57
2023-04-12T12:19:46.718Z,4.28
2023-04-12T12:22:19.044Z,5.07
2023-04-12T12:25:00.268Z,5.25
2023-04-12T12:27:43.259Z,5.38
2023-04-12T12:30:12.392Z,3.50
2023-04-12T12:32:40.343Z,2.17
2023-04-12T12:35:14.591Z,2.50
2023-04-12T12:37:52.655Z,5.22
2023-04-12T12:40:30.522Z,7.07
2023-04-12T12:42:57.797Z,1.75
2023-04-12T12:45:27.617Z,3.60
2023-04-12T12:48:03.211Z,2.10
2023-04-12T12:50:36.350Z,2.53
2023-04-12T12:53:05.920Z,3.92
2023-04-12T12:55:33.285Z,5.13
2023-04-12T13:00:31.607Z,2.63
2023-04-12T13:02:59.436Z,4.95
2023-04-12T13:05:27.036Z,5.50
2023-04-12T13:07:54.250Z,5.55
2023-04-12T13:10:21.686Z,3.90
2023-04-12T13:12:48.902Z,4.50
2023-04-12T13:17:46.594Z,2.53
2023-04-12T13:20:13.723Z,3.03
2023-04-12T13:22:41.026Z,7.05
2023-04-12T13:25:09.275Z,2.75
2023-04-12T13:27:36.737Z,5.60
2023-04-12T13:30:04.842Z,3.00
2023-04-12T13:32:32.309Z,3.78
2023-04-12T13:34:59.821Z,4.13
2023-04-12T13:37:27.153Z,2.28
2023-04-12T13:39:54.432Z,5.20
2023-04-12T13:42:22.923Z,3.88
2023-04-12T13:44:50.626Z,2.70
2023-04-12T13:47:18.089Z,5.40
2023-04-12T13:49:45.934Z,4.57
2023-04-12T13:52:13.599Z,3.65
2023-04-12T13:54:41.299Z,6.50
2023-04-12T13:57:09.000Z,2.40
2023-04-12T13:59:36.210Z,5.00
2023-04-12T14:02:03.723Z,3.90
2023-04-12T14:04:32.004Z,4.22
2023-04-12T14:06:59.687Z,4.15
2023-04-12T14:09:29.447Z,5.85
2023-04-12T14:12:00.158Z,5.57
2023-04-12T14:14:27.922Z,4.05
2023-04-12T14:16:58.559Z,4.38
2023-04-12T14:19:25.913Z,4.47
2023-04-12T14:21:53.720Z,6.35
2023-04-12T14:24:21.694Z,7.30
2023-04-12T14:26:50.322Z,2.95
2023-04-12T14:29:17.590Z,3.72
2023-04-12T14:31:44.899Z,4.43
2023-04-12T14:34:13.477Z,7.40
2023-04-12T14:36:41.434Z,1.98
2023-04-12T14:39:10.619Z,5.47
2023-04-12T14:41:38.814Z,4.65
2023-04-12T14:44:06.240Z,3.10
2023-04-12T14:46:33.547Z,4.47
2023-04-12T14:49:01.554Z,4.47
2023-04-12T14:51:29.707Z,2.90
2023-04-12T14:53:57.667Z,7.03
2023-04-12T14:56:28.588Z,2.40
2023-04-12T14:58:56.945Z,4.63
2023-04-12T15:01:25.577Z,3.50
2023-04-12T15:03:53.892Z,5.55
2023-04-12T15:06:23.422Z,2.78
2023-04-12T15:08:54.355Z,4.38
2023-04-12T15:11:26.543Z,3.97
2023-04-12T15:13:55.441Z,4.95
2023-04-12T15:16:23.513Z,2.17
2023-04-12T15:18:51.836Z,2.03
2023-04-12T15:21:19.431Z,3.22
2023-04-12T15:23:47.442Z,3.13
2023-04-12T15:26:15.979Z,6.13
2023-04-12T15:28:43.269Z,2.60
2023-04-12T15:31:12.064Z,2.38
2023-04-12T15:33:39.490Z,2.05
2023-04-12T15:36:07.205Z,4.88
2023-04-12T15:38:42.551Z,3.90
2023-04-12T15:41:10.588Z,4.47
2023-04-12T15:43:37.824Z,5.18
2023-04-12T15:46:05.350Z,7.03
2023-04-12T15:48:32.644Z,2.72
2023-04-12T15:51:00.284Z,4.30
2023-04-12T15:53:27.613Z,5.88
2023-04-12T15:55:55.519Z,4.10
2023-04-12T15:58:23.802Z,4.60
2023-04-12T16:00:53.052Z,4.28
2023-04-12T16:03:23.239Z,3.70
2023-04-12T16:05:54.712Z,3.42
2023-04-12T16:08:22.764Z,4.22
2023-04-12T16:10:50.951Z,6.82
2023-04-12T16:13:18.871Z,6.78
2023-04-12T16:15:47.091Z,5.60
2023-04-12T16:18:14.614Z,2.38
2023-04-12T16:20:41.850Z,5.35
2023-04-12T16:23:09.182Z,6.30
2023-04-12T16:25:36.554Z,4.63
2023-04-12T16:28:04.198Z,11.48
2023-04-12T16:30:32.856Z,10.20
2023-04-12T16:33:00.412Z,3.08
2023-04-12T16:35:28.085Z,4.15
2023-04-12T16:37:55.571Z,2.85
2023-04-12T16:40:24.690Z,5.47
2023-04-12T16:42:52.128Z,4.25
2023-04-12T16:45:19.963Z,2.67
2023-04-12T16:47:47.758Z,3.42
2023-04-12T16:50:15.423Z,2.72
2023-04-12T16:52:42.879Z,3.50
2023-04-12T16:55:11.456Z,5.35
2023-04-12T16:57:41.715Z,5.10
2023-04-12T17:00:20.935Z,8.43
2023-04-12T17:02:52.934Z,7.70
2023-04-12T17:05:22.350Z,4.82
2023-04-12T17:07:51.518Z,7.25
2023-04-12T17:10:24.369Z,10.07
2023-04-12T17:12:55.766Z,7.45
2023-04-12T17:15:25.358Z,11.68
2023-04-12T17:17:54.425Z,10.98
2023-04-12T17:20:23.185Z,11.85
2023-04-12T17:22:51.184Z,25.40
2023-04-12T17:25:20.698Z,25.77
2023-04-12T17:27:48.776Z,29.13
2023-04-12T17:30:17.722Z,22.48
2023-04-12T17:32:47.743Z,18.05
2023-04-12T17:35:15.949Z,14.77
2023-04-12T17:37:43.343Z,14.90
2023-04-12T17:40:11.206Z,17.38
2023-04-12T17:42:42.266Z,24.80
2023-04-12T17:45:14.711Z,25.77
2023-04-12T17:47:42.799Z,21.63
2023-04-12T17:50:11.308Z,22.13
2023-04-12T17:52:39.075Z,24.70
2023-04-12T17:55:09.402Z,23.02
2023-04-12T17:57:36.833Z,17.13
2023-04-12T18:00:14.342Z,18.25
2023-04-12T18:02:43.599Z,17.50
2023-04-12T18:05:11.443Z,12.77
2023-04-12T18:07:40.244Z,7.85
2023-04-12T18:10:09.393Z,9.13
2023-04-12T18:12:38.767Z,9.65
2023-04-12T18:15:08.362Z,11.20
2023-04-12T18:17:36.057Z,12.30
2023-04-12T18:20:06.079Z,13.10
2023-04-12T18:22:33.287Z,12.40
2023-04-12T18:25:01.248Z,8.20
2023-04-12T18:27:31.993Z,7.72
2023-04-12T18:30:01.375Z,18.38
2023-04-12T18:32:29.511Z,14.43
2023-04-12T18:34:56.791Z,19.25
2023-04-12T18:37:27.030Z,27.98
2023-04-12T18:39:55.536Z,28.55
2023-04-12T18:42:22.803Z,41.83
2023-04-12T18:44:50.906Z,40.15
2023-04-12T18:47:18.773Z,39.40
2023-04-12T18:49:45.949Z,37.30
2023-04-12T18:52:13.196Z,33.40
2023-04-12T18:54:40.396Z,38.40
2023-04-12T18:57:08.444Z,38.95
2023-04-12T18:59:35.730Z,42.38
2023-04-12T19:02:03.495Z,24.27
2023-04-12T19:04:30.848Z,27.95
2023-04-12T19:06:58.112Z,29.65
2023-04-12T19:09:25.304Z,18.25
2023-04-12T19:11:55.557Z,50.30
2023-04-12T19:14:22.948Z,48.50
2023-04-12T19:16:50.147Z,32.92
2023-04-12T19:19:17.468Z,21.20
2023-04-12T19:21:44.682Z,28.25
2023-04-12T19:24:12.411Z,35.15
2023-04-12T19:26:46.956Z,31.27
2023-04-12T19:29:19.771Z,23.13
2023-04-12T19:31:52.178Z,18.67
2023-04-12T19:34:19.586Z,17.55
2023-04-12T19:36:47.687Z,19.92
2023-04-12T19:39:15.822Z,14.90
2023-04-12T19:41:42.969Z,15.93
2023-04-12T19:44:10.241Z,16.45
2023-04-12T19:46:39.038Z,17.42
2023-04-12T19:49:06.739Z,13.32
2023-04-12T19:51:34.725Z,11.18
2023-04-12T19:54:02.791Z,12.95
2023-04-12T19:56:31.539Z,17.05
2023-04-12T19:59:00.099Z,11.13
2023-04-12T20:01:27.636Z,9.20
2023-04-12T20:03:54.969Z,10.45
2023-04-12T20:06:22.282Z,11.68
2023-04-12T20:08:49.550Z,11.25
2023-04-12T20:11:16.866Z,19.33
2023-04-12T20:13:44.067Z,18.23
2023-04-12T20:16:11.311Z,12.30
2023-04-12T20:18:38.708Z,10.73
2023-04-12T20:21:09.947Z,16.83
2023-04-12T20:23:37.369Z,17.05
2023-04-12T20:26:05.756Z,8.60
2023-04-12T20:28:33.161Z,8.63
2023-04-12T20:31:00.868Z,8.85
2023-04-12T20:33:28.129Z,11.98
2023-04-12T20:35:55.358Z,9.38
2023-04-12T20:38:23.196Z,11.45
2023-04-12T20:40:51.388Z,9.02
2023-04-12T20:43:18.640Z,15.60
2023-04-12T20:45:46.972Z,6.65
2023-04-12T20:48:14.817Z,8.68
2023-04-12T20:50:42.370Z,10.15
2023-04-12T20:53:15.512Z,8.23
2023-04-12T20:55:42.947Z,7.95
2023-04-12T20:58:14.458Z,6.18
2023-04-12T21:00:50.863Z,7.35
2023-04-12T21:03:19.253Z,8.05
2023-04-12T21:05:50.556Z,5.85
2023-04-12T21:08:18.618Z,5.82
2023-04-12T21:10:48.284Z,9.60
2023-04-12T21:13:16.402Z,8.05
2023-04-12T21:15:43.802Z,8.38
2023-04-12T21:18:11.033Z,8.73
2023-04-12T21:20:38.737Z,9.23
2023-04-12T21:23:07.448Z,7.25
2023-04-12T21:25:34.960Z,7.95
2023-04-12T21:28:02.282Z,7.80
2023-04-12T21:30:29.613Z,8.02
2023-04-12T21:32:56.851Z,8.32
2023-04-12T21:35:24.363Z,10.95
2023-04-12T21:37:52.382Z,13.45
2023-04-12T21:40:19.658Z,13.43
2023-04-12T21:42:46.826Z,8.82
2023-04-12T21:45:14.497Z,19.45
2023-04-12T21:47:42.843Z,12.98
2023-04-12T21:50:12.956Z,17.27
2023-04-12T21:52:44.180Z,15.18
2023-04-12T21:55:11.868Z,16.60
2023-04-12T21:57:39.134Z,13.90
2023-04-12T22:00:08.907Z,14.68
2023-04-12T22:02:39.548Z,16.42
2023-04-12T22:05:07.587Z,16.25
2023-04-12T22:07:35.370Z,15.95
2023-04-12T22:10:02.537Z,17.70
2023-04-12T22:12:33.824Z,17.30
2023-04-12T22:15:01.226Z,17.95
2023-04-12T22:17:31.039Z,17.10
2023-04-12T22:19:58.946Z,14.18
2023-04-12T22:22:28.869Z,16.13
2023-04-12T22:24:56.619Z,15.82
2023-04-12T22:27:26.587Z,16.85
2023-04-12T22:29:53.973Z,16.85
2023-04-12T22:32:21.395Z,18.70
2023-04-12T22:34:57.969Z,17.42
2023-04-12T22:37:35.131Z,19.58
2023-04-12T22:40:03.725Z,16.10
2023-04-12T22:42:31.356Z,16.85
2023-04-12T22:44:58.684Z,21.25
2023-04-12T22:47:26.919Z,21.00
2023-04-12T22:50:01.344Z,23.38
2023-04-12T22:52:30.668Z,23.30
2023-04-12T22:54:58.186Z,20.98
2023-04-12T22:57:25.686Z,19.65
2023-04-12T22:59:53.648Z,20.30
2023-04-12T23:02:21.104Z,20.35
2023-04-12T23:04:51.120Z,21.35
2023-04-12T23:07:18.528Z,21.55
2023-04-12T23:09:46.112Z,26.15
2023-04-12T23:12:13.778Z,24.65
2023-04-12T23:14:41.094Z,21.00
2023-04-12T23:17:08.376Z,20.98
2023-04-12T23:19:35.612Z,26.08
2023-04-12T23:22:03.423Z,23.10
2023-04-12T23:24:30.975Z,25.05
2023-04-12T23:26:58.994Z,26.17
2023-04-12T23:29:26.282Z,20.55
2023-04-12T23:31:53.556Z,22.60
2023-04-12T23:34:22.154Z,19.52
2023-04-12T23:36:52.194Z,22.17
2023-04-12T23:39:20.320Z,23.70
2023-04-12T23:41:47.466Z,19.80
2023-04-12T23:44:14.795Z,21.25
2023-04-12T23:46:42.031Z,23.27
2023-04-12T23:49:09.280Z,18.15
2023-04-12T23:51:36.493Z,19.40
2023-04-12T23:54:04.078Z,20.85
2023-04-12T23:56:31.634Z,21.20
2023-04-12T23:58:58.835Z,23.27
